CheckWX is a tool to help pilots better visualize weather data.  It is not intended as a substitute for an official pre-flight weather briefing.

10:42:02 UTC

KLAF TAF
Purdue University Airport
Lafayette, Indiana, USA
KLAF 181007Z 1810/1906 20013G18KT 6SM SHRA BR VCTS OVC035CB TEMPO 1810/1813 4SM TSRA BKN015 OVC035CB FM181300 21014KT 6SM SHRA BR OVC010 TEMPO 1813/1815 4SM TSRA BR OVC009CB FM181500 21014G22KT 6SM SHRA BR VCTS OVC012CB FM190000 35010KT 5SM -SHRA BR OVC025 AMD LTD TO CLD VIS AND WIND TIL 181300

Apr-18@
10:00 UTC

Apr-18 @ 10:00 UTC

Apr-18@
13:00 UTC

Apr-18 @ 13:00 UTC

KLAF 181007Z 1810/1906 20013G18KT 6SM SHRA BR VCTS OVC035CB
Wind
  • 200° at 13 KTS
  • {Gusting to 18 KTS
Conditions
Rain, Mist, Area Thunderstorm
Cloud Levels
  • Overcast at 3,500' AGL

Apr-18@
10:00 UTC

Apr-18 @ 10:00 UTC

Apr-18@
13:00 UTC

Apr-18 @ 13:00 UTC

TEMPO 1810/1813 4SM TSRA BKN015 OVC035CB

Temporary

Temporary Changes expected for less than half the time period

Conditions
Thunderstorm, Rain
Cloud Levels
  • Broken at 1,500' AGL
  • Overcast at 3,500' AGL

Apr-18@
13:00 UTC

Apr-18 @ 13:00 UTC

Apr-18@
15:00 UTC

Apr-18 @ 15:00 UTC

FM181300 21014KT 6SM SHRA BR OVC010

From

From Standard forecast or significant change

Wind
  • 210° at 14 KTS
Conditions
Rain, Mist
Cloud Levels
  • Overcast at 1,000' AGL

Apr-18@
13:00 UTC

Apr-18 @ 13:00 UTC

Apr-18@
15:00 UTC

Apr-18 @ 15:00 UTC

TEMPO 1813/1815 4SM TSRA BR OVC009CB

Temporary

Temporary Changes expected for less than half the time period

Conditions
Thunderstorm, Rain, Mist
Cloud Levels
  • Overcast at 900' AGL

Apr-18@
15:00 UTC

Apr-18 @ 15:00 UTC

Apr-19@
00:00 UTC

Apr-19 @ 00:00 UTC

FM181500 21014G22KT 6SM SHRA BR VCTS OVC012CB

From

From Standard forecast or significant change

Wind
  • 210° at 14 KTS
  • {Gusting to 22 KTS
Conditions
Rain, Mist, Area Thunderstorm
Cloud Levels
  • Overcast at 1,200' AGL

Apr-19@
00:00 UTC

Apr-19 @ 00:00 UTC

Apr-19@
06:00 UTC

Apr-19 @ 06:00 UTC

FM190000 35010KT 5SM -SHRA BR OVC025 AMD LTD TO CLD VIS AND WIND TIL 181300

From

From Standard forecast or significant change

Wind
  • 350° at 10 KTS
Conditions
Light Rain, Mist
Cloud Levels
  • Overcast at 2,500' AGL